sensor_id;sensor_type;location;lat;lon;timestamp;temperature;humidity
25058;DHT22;13057;50.978;11.034;2022-11-30T00:00:53;8.30;99.90
25058;DHT22;13057;50.978;11.034;2022-11-30T00:03:18;8.40;99.90
25058;DHT22;13057;50.978;11.034;2022-11-30T00:05:44;8.40;99.90
25058;DHT22;13057;50.978;11.034;2022-11-30T00:08:10;8.40;99.90
25058;DHT22;13057;50.978;11.034;2022-11-30T00:10:38;8.40;99.90
25058;DHT22;13057;50.978;11.034;2022-11-30T00:13:04;8.30;99.90
25058;DHT22;13057;50.978;11.034;2022-11-30T00:15:31;8.30;99.90
25058;DHT22;13057;50.978;11.034;2022-11-30T00:17:57;8.30;99.90
25058;DHT22;13057;50.978;11.034;2022-11-30T00:20:24;8.30;99.90
25058;DHT22;13057;50.978;11.034;2022-11-30T00:22:50;8.30;99.90
25058;DHT22;13057;50.978;11.034;2022-11-30T00:25:15;8.40;99.90
25058;DHT22;13057;50.978;11.034;2022-11-30T00:27:42;8.40;99.90
25058;DHT22;13057;50.978;11.034;2022-11-30T00:30:08;8.40;99.90
25058;DHT22;13057;50.978;11.034;2022-11-30T00:32:34;8.40;99.90
25058;DHT22;13057;50.978;11.034;2022-11-30T00:35:00;8.30;99.90
25058;DHT22;13057;50.978;11.034;2022-11-30T00:37:26;8.40;99.90
25058;DHT22;13057;50.978;11.034;2022-11-30T00:39:51;8.30;99.90
25058;DHT22;13057;50.978;11.034;2022-11-30T00:42:17;8.30;99.90
25058;DHT22;13057;50.978;11.034;2022-11-30T00:44:43;8.30;99.90
25058;DHT22;13057;50.978;11.034;2022-11-30T00:47:09;8.30;99.90
25058;DHT22;13057;50.978;11.034;2022-11-30T00:49:35;8.30;99.90
25058;DHT22;13057;50.978;11.034;2022-11-30T00:52:01;8.20;99.90
25058;DHT22;13057;50.978;11.034;2022-11-30T00:54:27;8.30;99.90
25058;DHT22;13057;50.978;11.034;2022-11-30T00:56:53;8.20;99.90
25058;DHT22;13057;50.978;11.034;2022-11-30T00:59:19;8.20;99.90
25058;DHT22;13057;50.978;11.034;2022-11-30T01:01:45;8.30;99.90
25058;DHT22;13057;50.978;11.034;2022-11-30T01:04:10;8.20;99.90
25058;DHT22;13057;50.978;11.034;2022-11-30T01:06:37;8.30;99.90
25058;DHT22;13057;50.978;11.034;2022-11-30T01:09:03;8.30;99.90
25058;DHT22;13057;50.978;11.034;2022-11-30T01:11:29;8.30;99.90
25058;DHT22;13057;50.978;11.034;2022-11-30T01:13:57;8.30;99.90
25058;DHT22;13057;50.978;11.034;2022-11-30T01:16:29;8.20;99.90
25058;DHT22;13057;50.978;11.034;2022-11-30T01:18:55;8.20;99.90
25058;DHT22;13057;50.978;11.034;2022-11-30T01:21:24;8.20;99.90
25058;DHT22;13057;50.978;11.034;2022-11-30T01:23:50;8.20;99.90
25058;DHT22;13057;50.978;11.034;2022-11-30T01:26:17;8.20;99.90
25058;DHT22;13057;50.978;11.034;2022-11-30T01:28:44;8.20;99.90
25058;DHT22;13057;50.978;11.034;2022-11-30T01:31:13;8.20;99.90
25058;DHT22;13057;50.978;11.034;2022-11-30T01:33:40;8.10;99.90
25058;DHT22;13057;50.978;11.034;2022-11-30T01:36:12;8.10;99.90
25058;DHT22;13057;50.978;11.034;2022-11-30T01:38:43;8.00;99.90
25058;DHT22;13057;50.978;11.034;2022-11-30T01:41:11;8.00;99.90
25058;DHT22;13057;50.978;11.034;2022-11-30T01:43:40;7.90;99.90
25058;DHT22;13057;50.978;11.034;2022-11-30T01:46:20;7.90;99.90
25058;DHT22;13057;50.978;11.034;2022-11-30T01:51:39;8.10;99.90
25058;DHT22;13057;50.978;11.034;2022-11-30T01:54:08;8.00;99.90
25058;DHT22;13057;50.978;11.034;2022-11-30T01:56:36;8.10;99.90
25058;DHT22;13057;50.978;11.034;2022-11-30T01:59:06;7.90;99.90
25058;DHT22;13057;50.978;11.034;2022-11-30T02:01:31;7.80;99.90
25058;DHT22;13057;50.978;11.034;2022-11-30T02:04:02;7.80;99.90
25058;DHT22;13057;50.978;11.034;2022-11-30T02:06:29;7.80;99.90
25058;DHT22;13057;50.978;11.034;2022-11-30T02:08:55;7.70;99.90
25058;DHT22;13057;50.978;11.034;2022-11-30T02:11:21;7.70;99.90
25058;DHT22;13057;50.978;11.034;2022-11-30T02:14:10;7.70;99.90
25058;DHT22;13057;50.978;11.034;2022-11-30T02:16:53;7.70;99.90
25058;DHT22;13057;50.978;11.034;2022-11-30T02:19:48;7.70;99.90
25058;DHT22;13057;50.978;11.034;2022-11-30T02:22:52;7.70;99.90
25058;DHT22;13057;50.978;11.034;2022-11-30T02:25:33;7.90;99.90
25058;DHT22;13057;50.978;11.034;2022-11-30T02:28:19;7.90;99.90
25058;DHT22;13057;50.978;11.034;2022-11-30T02:30:51;7.80;99.90
25058;DHT22;13057;50.978;11.034;2022-11-30T02:33:22;7.70;99.90
25058;DHT22;13057;50.978;11.034;2022-11-30T02:35:51;7.70;99.90
25058;DHT22;13057;50.978;11.034;2022-11-30T02:38:22;7.70;99.90
25058;DHT22;13057;50.978;11.034;2022-11-30T02:40:49;7.60;99.90
25058;DHT22;13057;50.978;11.034;2022-11-30T02:43:15;7.70;99.90
25058;DHT22;13057;50.978;11.034;2022-11-30T02:45:51;7.70;99.90
25058;DHT22;13057;50.978;11.034;2022-11-30T02:48:25;7.80;99.90
25058;DHT22;13057;50.978;11.034;2022-11-30T02:50:56;7.70;99.90
25058;DHT22;13057;50.978;11.034;2022-11-30T02:53:24;7.80;99.90
25058;DHT22;13057;50.978;11.034;2022-11-30T02:55:50;7.90;99.90
25058;DHT22;13057;50.978;11.034;2022-11-30T02:58:16;7.90;99.90
25058;DHT22;13057;50.978;11.034;2022-11-30T03:00:42;7.80;99.90
25058;DHT22;13057;50.978;11.034;2022-11-30T03:03:08;7.80;99.90
25058;DHT22;13057;50.978;11.034;2022-11-30T03:05:34;7.90;99.90
25058;DHT22;13057;50.978;11.034;2022-11-30T03:08:00;7.80;99.90
25058;DHT22;13057;50.978;11.034;2022-11-30T03:10:25;7.80;99.90
25058;DHT22;13057;50.978;11.034;2022-11-30T03:12:51;7.70;99.90
25058;DHT22;13057;50.978;11.034;2022-11-30T03:15:17;7.80;99.90
25058;DHT22;13057;50.978;11.034;2022-11-30T03:17:43;7.90;99.90
25058;DHT22;13057;50.978;11.034;2022-11-30T03:20:09;7.90;99.90
25058;DHT22;13057;50.978;11.034;2022-11-30T03:22:35;7.90;99.90
25058;DHT22;13057;50.978;11.034;2022-11-30T03:25:01;8.00;99.90
25058;DHT22;13057;50.978;11.034;2022-11-30T03:27:26;8.00;99.90
25058;DHT22;13057;50.978;11.034;2022-11-30T03:29:55;8.10;99.90
25058;DHT22;13057;50.978;11.034;2022-11-30T03:32:21;8.10;99.90
25058;DHT22;13057;50.978;11.034;2022-11-30T03:34:47;8.10;99.90
25058;DHT22;13057;50.978;11.034;2022-11-30T03:37:13;8.10;99.90
25058;DHT22;13057;50.978;11.034;2022-11-30T03:39:38;8.10;99.90
25058;DHT22;13057;50.978;11.034;2022-11-30T03:42:04;8.00;99.90
25058;DHT22;13057;50.978;11.034;2022-11-30T03:44:30;7.90;99.90
25058;DHT22;13057;50.978;11.034;2022-11-30T03:46:56;7.90;99.90
25058;DHT22;13057;50.978;11.034;2022-11-30T03:49:22;7.90;99.90
25058;DHT22;13057;50.978;11.034;2022-11-30T03:51:48;7.90;99.90
25058;DHT22;13057;50.978;11.034;2022-11-30T03:54:13;8.00;99.90
25058;DHT22;13057;50.978;11.034;2022-11-30T03:56:39;7.90;99.90
25058;DHT22;13057;50.978;11.034;2022-11-30T03:59:05;8.00;99.90
25058;DHT22;13057;50.978;11.034;2022-11-30T04:01:31;8.00;99.90
25058;DHT22;13057;50.978;11.034;2022-11-30T04:03:57;8.00;99.90
25058;DHT22;13057;50.978;11.034;2022-11-30T04:06:23;8.00;99.90
25058;DHT22;13057;50.978;11.034;2022-11-30T04:08:49;8.00;99.90
25058;DHT22;13057;50.978;11.034;2022-11-30T04:11:15;8.00;99.90
25058;DHT22;13057;50.978;11.034;2022-11-30T04:13:42;8.10;99.90
25058;DHT22;13057;50.978;11.034;2022-11-30T04:16:08;8.10;99.90
25058;DHT22;13057;50.978;11.034;2022-11-30T04:18:35;8.10;99.90
25058;DHT22;13057;50.978;11.034;2022-11-30T04:21:01;8.20;99.90
25058;DHT22;13057;50.978;11.034;2022-11-30T04:23:31;8.10;99.90
25058;DHT22;13057;50.978;11.034;2022-11-30T04:25:57;8.10;99.90
25058;DHT22;13057;50.978;11.034;2022-11-30T04:28:23;8.10;99.90
25058;DHT22;13057;50.978;11.034;2022-11-30T04:30:49;8.00;99.90
25058;DHT22;13057;50.978;11.034;2022-11-30T04:33:15;8.00;99.90
25058;DHT22;13057;50.978;11.034;2022-11-30T04:35:47;8.10;99.90
25058;DHT22;13057;50.978;11.034;2022-11-30T04:38:13;8.10;99.90
25058;DHT22;13057;50.978;11.034;2022-11-30T04:40:41;8.10;99.90
25058;DHT22;13057;50.978;11.034;2022-11-30T04:43:08;8.10;99.90
25058;DHT22;13057;50.978;11.034;2022-11-30T04:45:34;8.10;99.90
25058;DHT22;13057;50.978;11.034;2022-11-30T04:48:00;8.00;99.90
25058;DHT22;13057;50.978;11.034;2022-11-30T04:50:26;7.90;99.90
25058;DHT22;13057;50.978;11.034;2022-11-30T04:52:52;8.00;99.90
25058;DHT22;13057;50.978;11.034;2022-11-30T04:55:18;8.10;99.90
25058;DHT22;13057;50.978;11.034;2022-11-30T04:57:45;8.10;99.90
25058;DHT22;13057;50.978;11.034;2022-11-30T05:00:12;8.00;99.90
25058;DHT22;13057;50.978;11.034;2022-11-30T05:02:38;8.00;99.90
25058;DHT22;13057;50.978;11.034;2022-11-30T05:05:04;7.90;99.90
25058;DHT22;13057;50.978;11.034;2022-11-30T05:07:30;7.90;99.90
25058;DHT22;13057;50.978;11.034;2022-11-30T05:09:56;7.90;99.90
25058;DHT22;13057;50.978;11.034;2022-11-30T05:12:21;7.80;99.90
25058;DHT22;13057;50.978;11.034;2022-11-30T05:14:47;7.80;99.90
25058;DHT22;13057;50.978;11.034;2022-11-30T05:17:13;7.90;99.90
25058;DHT22;13057;50.978;11.034;2022-11-30T05:19:39;7.80;99.90
25058;DHT22;13057;50.978;11.034;2022-11-30T05:22:05;7.70;99.90
25058;DHT22;13057;50.978;11.034;2022-11-30T05:24:31;7.80;99.90
25058;DHT22;13057;50.978;11.034;2022-11-30T05:26:57;7.80;99.90
25058;DHT22;13057;50.978;11.034;2022-11-30T05:29:23;7.80;99.90
25058;DHT22;13057;50.978;11.034;2022-11-30T05:31:49;7.90;99.90
25058;DHT22;13057;50.978;11.034;2022-11-30T05:34:15;7.90;99.90
25058;DHT22;13057;50.978;11.034;2022-11-30T05:36:40;7.90;99.90
25058;DHT22;13057;50.978;11.034;2022-11-30T05:39:06;7.90;99.90
25058;DHT22;13057;50.978;11.034;2022-11-30T05:41:32;7.90;99.90
25058;DHT22;13057;50.978;11.034;2022-11-30T05:43:58;7.90;99.90
25058;DHT22;13057;50.978;11.034;2022-11-30T05:46:24;7.90;99.90
25058;DHT22;13057;50.978;11.034;2022-11-30T05:48:50;7.90;99.90
25058;DHT22;13057;50.978;11.034;2022-11-30T05:51:17;7.90;99.90
25058;DHT22;13057;50.978;11.034;2022-11-30T05:53:44;7.90;99.90
25058;DHT22;13057;50.978;11.034;2022-11-30T05:56:13;7.80;99.90
25058;DHT22;13057;50.978;11.034;2022-11-30T05:58:39;7.80;99.90
25058;DHT22;13057;50.978;11.034;2022-11-30T06:01:06;7.80;99.90
25058;DHT22;13057;50.978;11.034;2022-11-30T06:03:34;7.90;99.90
25058;DHT22;13057;50.978;11.034;2022-11-30T06:06:00;7.90;99.90
25058;DHT22;13057;50.978;11.034;2022-11-30T06:08:26;7.90;99.90
25058;DHT22;13057;50.978;11.034;2022-11-30T06:10:53;7.90;99.90
25058;DHT22;13057;50.978;11.034;2022-11-30T06:13:19;7.90;99.90
25058;DHT22;13057;50.978;11.034;2022-11-30T06:15:45;7.90;99.90
25058;DHT22;13057;50.978;11.034;2022-11-30T06:18:12;7.90;99.90
25058;DHT22;13057;50.978;11.034;2022-11-30T06:20:38;7.90;99.90
25058;DHT22;13057;50.978;11.034;2022-11-30T06:23:04;7.90;99.90
25058;DHT22;13057;50.978;11.034;2022-11-30T06:25:31;7.90;99.90
25058;DHT22;13057;50.978;11.034;2022-11-30T06:27:57;8.00;99.90
25058;DHT22;13057;50.978;11.034;2022-11-30T06:30:23;8.00;99.90
25058;DHT22;13057;50.978;11.034;2022-11-30T06:32:50;8.00;99.90
25058;DHT22;13057;50.978;11.034;2022-11-30T06:35:17;7.90;99.90
25058;DHT22;13057;50.978;11.034;2022-11-30T06:37:43;7.90;99.90
25058;DHT22;13057;50.978;11.034;2022-11-30T06:40:11;7.90;99.90
25058;DHT22;13057;50.978;11.034;2022-11-30T06:42:37;7.90;99.90
25058;DHT22;13057;50.978;11.034;2022-11-30T06:45:05;7.90;99.90
25058;DHT22;13057;50.978;11.034;2022-11-30T06:47:31;7.90;99.90
25058;DHT22;13057;50.978;11.034;2022-11-30T06:49:57;7.90;99.90
25058;DHT22;13057;50.978;11.034;2022-11-30T06:52:23;8.00;99.90
25058;DHT22;13057;50.978;11.034;2022-11-30T06:54:49;8.00;99.90
25058;DHT22;13057;50.978;11.034;2022-11-30T06:57:15;8.00;99.90
25058;DHT22;13057;50.978;11.034;2022-11-30T06:59:41;7.90;99.90
25058;DHT22;13057;50.978;11.034;2022-11-30T07:02:10;7.90;99.90
25058;DHT22;13057;50.978;11.034;2022-11-30T07:04:36;7.90;99.90
25058;DHT22;13057;50.978;11.034;2022-11-30T07:07:01;7.90;99.90
25058;DHT22;13057;50.978;11.034;2022-11-30T07:09:27;7.90;99.90
25058;DHT22;13057;50.978;11.034;2022-11-30T07:11:53;7.90;99.90
25058;DHT22;13057;50.978;11.034;2022-11-30T07:14:19;7.90;99.90
25058;DHT22;13057;50.978;11.034;2022-11-30T07:16:45;7.90;99.90
25058;DHT22;13057;50.978;11.034;2022-11-30T07:19:11;7.90;99.90
25058;DHT22;13057;50.978;11.034;2022-11-30T07:21:36;7.90;99.90
25058;DHT22;13057;50.978;11.034;2022-11-30T07:24:02;7.90;99.90
25058;DHT22;13057;50.978;11.034;2022-11-30T07:26:40;8.00;99.90
25058;DHT22;13057;50.978;11.034;2022-11-30T07:29:06;8.00;99.90
25058;DHT22;13057;50.978;11.034;2022-11-30T07:31:32;7.90;99.90
25058;DHT22;13057;50.978;11.034;2022-11-30T07:34:04;7.90;99.90
25058;DHT22;13057;50.978;11.034;2022-11-30T07:36:32;7.90;99.90
25058;DHT22;13057;50.978;11.034;2022-11-30T07:38:58;7.90;99.90
25058;DHT22;13057;50.978;11.034;2022-11-30T07:41:24;7.90;99.90
25058;DHT22;13057;50.978;11.034;2022-11-30T07:43:50;7.90;99.90
25058;DHT22;13057;50.978;11.034;2022-11-30T07:46:16;7.90;99.90
25058;DHT22;13057;50.978;11.034;2022-11-30T07:48:43;7.90;99.90
25058;DHT22;13057;50.978;11.034;2022-11-30T07:51:15;7.90;99.90
25058;DHT22;13057;50.978;11.034;2022-11-30T07:53:41;7.90;99.90
25058;DHT22;13057;50.978;11.034;2022-11-30T07:56:10;7.90;99.90
25058;DHT22;13057;50.978;11.034;2022-11-30T07:58:37;7.90;99.90
25058;DHT22;13057;50.978;11.034;2022-11-30T08:01:06;7.90;99.90
25058;DHT22;13057;50.978;11.034;2022-11-30T08:03:33;7.90;99.90
25058;DHT22;13057;50.978;11.034;2022-11-30T08:06:05;7.90;99.90
25058;DHT22;13057;50.978;11.034;2022-11-30T08:08:37;7.90;99.90
25058;DHT22;13057;50.978;11.034;2022-11-30T08:11:04;8.00;99.90
25058;DHT22;13057;50.978;11.034;2022-11-30T08:13:30;8.10;99.90
25058;DHT22;13057;50.978;11.034;2022-11-30T08:16:01;8.10;99.90
25058;DHT22;13057;50.978;11.034;2022-11-30T08:18:27;8.10;99.90
25058;DHT22;13057;50.978;11.034;2022-11-30T08:20:58;8.10;99.90
25058;DHT22;13057;50.978;11.034;2022-11-30T08:23:28;8.10;99.90
25058;DHT22;13057;50.978;11.034;2022-11-30T08:25:54;8.10;99.90
25058;DHT22;13057;50.978;11.034;2022-11-30T08:28:20;8.10;99.90
25058;DHT22;13057;50.978;11.034;2022-11-30T08:30:46;8.20;99.90
25058;DHT22;13057;50.978;11.034;2022-11-30T08:33:12;8.10;99.90
25058;DHT22;13057;50.978;11.034;2022-11-30T08:35:38;8.00;99.90
25058;DHT22;13057;50.978;11.034;2022-11-30T08:38:04;7.90;99.90
25058;DHT22;13057;50.978;11.034;2022-11-30T08:40:30;7.90;99.90
25058;DHT22;13057;50.978;11.034;2022-11-30T08:42:57;7.90;99.90
25058;DHT22;13057;50.978;11.034;2022-11-30T08:45:24;7.90;99.90
25058;DHT22;13057;50.978;11.034;2022-11-30T08:47:50;8.00;99.90
25058;DHT22;13057;50.978;11.034;2022-11-30T08:50:16;8.00;99.90
25058;DHT22;13057;50.978;11.034;2022-11-30T08:52:42;8.10;99.90
25058;DHT22;13057;50.978;11.034;2022-11-30T08:55:08;8.10;99.90
25058;DHT22;13057;50.978;11.034;2022-11-30T08:57:34;8.10;99.90
25058;DHT22;13057;50.978;11.034;2022-11-30T09:00:00;8.10;99.90
25058;DHT22;13057;50.978;11.034;2022-11-30T09:02:26;8.20;99.90
25058;DHT22;13057;50.978;11.034;2022-11-30T09:04:52;8.20;99.90
25058;DHT22;13057;50.978;11.034;2022-11-30T09:07:18;8.30;99.90
25058;DHT22;13057;50.978;11.034;2022-11-30T09:09:44;8.30;99.90
25058;DHT22;13057;50.978;11.034;2022-11-30T09:12:10;8.30;99.90
25058;DHT22;13057;50.978;11.034;2022-11-30T09:14:36;8.30;99.90
25058;DHT22;13057;50.978;11.034;2022-11-30T09:17:01;8.40;99.90
25058;DHT22;13057;50.978;11.034;2022-11-30T09:19:27;8.30;99.90
25058;DHT22;13057;50.978;11.034;2022-11-30T09:21:53;8.30;99.90
25058;DHT22;13057;50.978;11.034;2022-11-30T09:24:19;8.20;99.90
25058;DHT22;13057;50.978;11.034;2022-11-30T09:26:46;8.30;99.90
25058;DHT22;13057;50.978;11.034;2022-11-30T09:29:12;8.40;99.90
25058;DHT22;13057;50.978;11.034;2022-11-30T09:31:37;8.40;99.90
25058;DHT22;13057;50.978;11.034;2022-11-30T09:34:03;8.40;99.90
25058;DHT22;13057;50.978;11.034;2022-11-30T09:36:30;8.40;99.90
25058;DHT22;13057;50.978;11.034;2022-11-30T09:38:57;8.40;99.90
25058;DHT22;13057;50.978;11.034;2022-11-30T09:41:50;8.50;99.90
25058;DHT22;13057;50.978;11.034;2022-11-30T09:44:39;8.50;99.90
25058;DHT22;13057;50.978;11.034;2022-11-30T09:47:26;8.50;99.90
25058;DHT22;13057;50.978;11.034;2022-11-30T09:49:53;8.60;99.90
25058;DHT22;13057;50.978;11.034;2022-11-30T09:52:27;8.60;99.90
25058;DHT22;13057;50.978;11.034;2022-11-30T09:54:59;8.50;99.90
25058;DHT22;13057;50.978;11.034;2022-11-30T09:57:33;8.50;99.90
25058;DHT22;13057;50.978;11.034;2022-11-30T10:00:04;8.50;99.90
25058;DHT22;13057;50.978;11.034;2022-11-30T10:02:34;8.50;99.90
25058;DHT22;13057;50.978;11.034;2022-11-30T10:05:09;8.40;99.90
25058;DHT22;13057;50.978;11.034;2022-11-30T10:10:39;8.50;99.90
25058;DHT22;13057;50.978;11.034;2022-11-30T10:13:23;8.50;99.90
25058;DHT22;13057;50.978;11.034;2022-11-30T10:21:43;8.50;99.90
25058;DHT22;13057;50.978;11.034;2022-11-30T10:24:19;8.50;99.90
25058;DHT22;13057;50.978;11.034;2022-11-30T10:26:55;8.50;99.90
25058;DHT22;13057;50.978;11.034;2022-11-30T10:31:58;8.40;99.90
25058;DHT22;13057;50.978;11.034;2022-11-30T10:34:31;8.50;99.90
25058;DHT22;13057;50.978;11.034;2022-11-30T10:37:10;8.50;99.90
25058;DHT22;13057;50.978;11.034;2022-11-30T10:42:27;8.70;99.90
25058;DHT22;13057;50.978;11.034;2022-11-30T10:45:04;8.70;99.90
25058;DHT22;13057;50.978;11.034;2022-11-30T10:47:34;8.70;99.90
25058;DHT22;13057;50.978;11.034;2022-11-30T10:50:04;8.70;99.90
25058;DHT22;13057;50.978;11.034;2022-11-30T10:52:35;8.70;99.90
25058;DHT22;13057;50.978;11.034;2022-11-30T10:55:15;8.70;99.90
25058;DHT22;13057;50.978;11.034;2022-11-30T10:57:43;8.70;99.90
25058;DHT22;13057;50.978;11.034;2022-11-30T11:00:12;8.70;99.90
25058;DHT22;13057;50.978;11.034;2022-11-30T11:02:44;8.70;99.90
25058;DHT22;13057;50.978;11.034;2022-11-30T11:05:23;8.60;99.90
25058;DHT22;13057;50.978;11.034;2022-11-30T11:07:52;8.70;99.90
25058;DHT22;13057;50.978;11.034;2022-11-30T11:10:30;8.70;99.90
25058;DHT22;13057;50.978;11.034;2022-11-30T11:12:57;8.70;99.90
25058;DHT22;13057;50.978;11.034;2022-11-30T11:15:28;8.80;99.90
25058;DHT22;13057;50.978;11.034;2022-11-30T11:18:19;8.80;99.90
25058;DHT22;13057;50.978;11.034;2022-11-30T11:20:47;8.70;99.90
25058;DHT22;13057;50.978;11.034;2022-11-30T11:23:21;8.70;99.90
25058;DHT22;13057;50.978;11.034;2022-11-30T11:25:50;8.70;99.90
25058;DHT22;13057;50.978;11.034;2022-11-30T11:28:18;8.70;99.90
25058;DHT22;13057;50.978;11.034;2022-11-30T11:30:47;8.60;99.90
25058;DHT22;13057;50.978;11.034;2022-11-30T11:33:27;8.70;99.90
25058;DHT22;13057;50.978;11.034;2022-11-30T11:36:13;8.70;99.90
25058;DHT22;13057;50.978;11.034;2022-11-30T11:38:44;8.80;99.90
25058;DHT22;13057;50.978;11.034;2022-11-30T11:41:24;8.80;99.90
25058;DHT22;13057;50.978;11.034;2022-11-30T11:44:00;8.80;99.90
25058;DHT22;13057;50.978;11.034;2022-11-30T11:46:27;8.80;99.90
25058;DHT22;13057;50.978;11.034;2022-11-30T11:51:33;8.80;99.90
25058;DHT22;13057;50.978;11.034;2022-11-30T11:54:12;8.90;99.90
25058;DHT22;13057;50.978;11.034;2022-11-30T11:56:40;8.90;99.90
25058;DHT22;13057;50.978;11.034;2022-11-30T11:59:13;8.80;99.90
25058;DHT22;13057;50.978;11.034;2022-11-30T12:01:51;8.80;99.90
25058;DHT22;13057;50.978;11.034;2022-11-30T12:04:38;8.80;99.90
25058;DHT22;13057;50.978;11.034;2022-11-30T12:07:16;8.80;99.90
25058;DHT22;13057;50.978;11.034;2022-11-30T12:09:54;8.80;99.90
25058;DHT22;13057;50.978;11.034;2022-11-30T12:12:21;8.80;99.90
25058;DHT22;13057;50.978;11.034;2022-11-30T12:14:47;8.90;99.90
25058;DHT22;13057;50.978;11.034;2022-11-30T12:17:25;8.80;99.90
25058;DHT22;13057;50.978;11.034;2022-11-30T12:20:02;8.90;99.90
25058;DHT22;13057;50.978;11.034;2022-11-30T12:22:49;8.90;99.90
25058;DHT22;13057;50.978;11.034;2022-11-30T12:25:23;8.90;99.90
25058;DHT22;13057;50.978;11.034;2022-11-30T12:28:19;8.90;99.90
25058;DHT22;13057;50.978;11.034;2022-11-30T12:31:10;8.90;99.90
25058;DHT22;13057;50.978;11.034;2022-11-30T12:33:56;8.90;99.90
25058;DHT22;13057;50.978;11.034;2022-11-30T12:36:41;8.90;99.90
25058;DHT22;13057;50.978;11.034;2022-11-30T12:39:27;8.90;99.90
25058;DHT22;13057;50.978;11.034;2022-11-30T12:42:00;9.00;99.90
25058;DHT22;13057;50.978;11.034;2022-11-30T12:44:54;9.00;99.90
25058;DHT22;13057;50.978;11.034;2022-11-30T12:47:43;8.90;99.90
25058;DHT22;13057;50.978;11.034;2022-11-30T12:50:26;8.90;99.90
25058;DHT22;13057;50.978;11.034;2022-11-30T12:53:08;8.90;99.90
25058;DHT22;13057;50.978;11.034;2022-11-30T12:55:45;8.90;99.90
25058;DHT22;13057;50.978;11.034;2022-11-30T12:58:30;9.00;99.90
25058;DHT22;13057;50.978;11.034;2022-11-30T13:01:12;8.90;99.90
25058;DHT22;13057;50.978;11.034;2022-11-30T13:03:42;9.00;99.90
25058;DHT22;13057;50.978;11.034;2022-11-30T13:06:21;9.00;99.90
25058;DHT22;13057;50.978;11.034;2022-11-30T13:09:02;8.90;99.90
25058;DHT22;13057;50.978;11.034;2022-11-30T13:11:35;8.90;99.90
25058;DHT22;13057;50.978;11.034;2022-11-30T13:14:05;8.90;99.90
25058;DHT22;13057;50.978;11.034;2022-11-30T13:16:34;8.90;99.90
25058;DHT22;13057;50.978;11.034;2022-11-30T13:19:14;9.00;99.90
25058;DHT22;13057;50.978;11.034;2022-11-30T13:21:51;9.00;99.90
25058;DHT22;13057;50.978;11.034;2022-11-30T13:24:22;9.10;99.90
25058;DHT22;13057;50.978;11.034;2022-11-30T13:26:58;9.10;99.90
25058;DHT22;13057;50.978;11.034;2022-11-30T13:29:49;9.00;99.90
25058;DHT22;13057;50.978;11.034;2022-11-30T13:32:18;9.00;99.90
25058;DHT22;13057;50.978;11.034;2022-11-30T13:34:44;9.10;99.90
25058;DHT22;13057;50.978;11.034;2022-11-30T13:37:18;9.10;99.90
25058;DHT22;13057;50.978;11.034;2022-11-30T13:39:49;9.10;99.90
25058;DHT22;13057;50.978;11.034;2022-11-30T13:42:34;9.10;99.90
25058;DHT22;13057;50.978;11.034;2022-11-30T13:47:46;9.00;99.90
25058;DHT22;13057;50.978;11.034;2022-11-30T13:50:31;9.00;99.90
25058;DHT22;13057;50.978;11.034;2022-11-30T13:53:07;9.00;99.90
25058;DHT22;13057;50.978;11.034;2022-11-30T13:55:55;9.00;99.90
25058;DHT22;13057;50.978;11.034;2022-11-30T13:58:22;9.00;99.90
25058;DHT22;13057;50.978;11.034;2022-11-30T14:01:02;9.00;99.90
25058;DHT22;13057;50.978;11.034;2022-11-30T14:03:29;8.90;99.90
25058;DHT22;13057;50.978;11.034;2022-11-30T14:05:58;8.90;99.90
25058;DHT22;13057;50.978;11.034;2022-11-30T14:08:33;8.90;99.90
25058;DHT22;13057;50.978;11.034;2022-11-30T14:13:58;8.70;99.90
25058;DHT22;13057;50.978;11.034;2022-11-30T14:16:43;8.80;99.90
25058;DHT22;13057;50.978;11.034;2022-11-30T14:19:09;8.80;99.90
25058;DHT22;13057;50.978;11.034;2022-11-30T14:21:35;8.70;99.90
25058;DHT22;13057;50.978;11.034;2022-11-30T14:24:15;8.70;99.90
25058;DHT22;13057;50.978;11.034;2022-11-30T14:26:45;8.70;99.90
25058;DHT22;13057;50.978;11.034;2022-11-30T14:29:18;8.80;99.90
25058;DHT22;13057;50.978;11.034;2022-11-30T14:31:53;8.70;99.90
25058;DHT22;13057;50.978;11.034;2022-11-30T14:34:23;8.70;99.90
25058;DHT22;13057;50.978;11.034;2022-11-30T14:36:55;8.70;99.90
25058;DHT22;13057;50.978;11.034;2022-11-30T14:39:25;8.70;99.90
25058;DHT22;13057;50.978;11.034;2022-11-30T14:41:52;8.70;99.90
25058;DHT22;13057;50.978;11.034;2022-11-30T14:44:18;8.70;99.90
25058;DHT22;13057;50.978;11.034;2022-11-30T14:46:44;8.70;99.90
25058;DHT22;13057;50.978;11.034;2022-11-30T14:49:16;8.70;99.90
25058;DHT22;13057;50.978;11.034;2022-11-30T14:51:43;8.70;99.90
25058;DHT22;13057;50.978;11.034;2022-11-30T14:54:19;8.70;99.90
25058;DHT22;13057;50.978;11.034;2022-11-30T14:56:51;8.70;99.90
25058;DHT22;13057;50.978;11.034;2022-11-30T14:59:38;8.60;99.90
25058;DHT22;13057;50.978;11.034;2022-11-30T15:02:17;8.70;99.90
25058;DHT22;13057;50.978;11.034;2022-11-30T15:04:46;8.60;99.90
25058;DHT22;13057;50.978;11.034;2022-11-30T15:07:14;8.60;99.90
25058;DHT22;13057;50.978;11.034;2022-11-30T15:09:43;8.70;99.90
25058;DHT22;13057;50.978;11.034;2022-11-30T15:12:10;8.70;99.90
25058;DHT22;13057;50.978;11.034;2022-11-30T15:15:01;8.60;99.90
25058;DHT22;13057;50.978;11.034;2022-11-30T15:17:27;8.60;99.90
25058;DHT22;13057;50.978;11.034;2022-11-30T15:19:53;8.60;99.90
25058;DHT22;13057;50.978;11.034;2022-11-30T15:22:23;8.50;99.90
25058;DHT22;13057;50.978;11.034;2022-11-30T15:24:49;8.50;99.90
25058;DHT22;13057;50.978;11.034;2022-11-30T15:27:21;8.50;99.90
25058;DHT22;13057;50.978;11.034;2022-11-30T15:29:56;8.40;99.90
25058;DHT22;13057;50.978;11.034;2022-11-30T15:32:23;8.40;99.90
25058;DHT22;13057;50.978;11.034;2022-11-30T15:34:53;8.40;99.90
25058;DHT22;13057;50.978;11.034;2022-11-30T15:37:27;8.30;99.90
25058;DHT22;13057;50.978;11.034;2022-11-30T15:39:56;8.30;99.90
25058;DHT22;13057;50.978;11.034;2022-11-30T15:42:29;8.30;99.90
25058;DHT22;13057;50.978;11.034;2022-11-30T15:45:10;8.30;99.90
25058;DHT22;13057;50.978;11.034;2022-11-30T15:47:38;8.30;99.90
25058;DHT22;13057;50.978;11.034;2022-11-30T15:50:29;8.20;99.90
25058;DHT22;13057;50.978;11.034;2022-11-30T15:53:00;8.30;99.90
25058;DHT22;13057;50.978;11.034;2022-11-30T15:55:44;8.20;99.90
25058;DHT22;13057;50.978;11.034;2022-11-30T15:58:40;8.20;99.90
25058;DHT22;13057;50.978;11.034;2022-11-30T16:01:14;8.20;99.90
25058;DHT22;13057;50.978;11.034;2022-11-30T16:03:58;8.10;99.90
25058;DHT22;13057;50.978;11.034;2022-11-30T16:06:35;8.10;99.90
25058;DHT22;13057;50.978;11.034;2022-11-30T16:09:18;8.10;99.90
25058;DHT22;13057;50.978;11.034;2022-11-30T16:11:51;8.10;99.90
25058;DHT22;13057;50.978;11.034;2022-11-30T16:14:20;8.10;99.90